createdAt,value
2022-10-05T00:13:03.719Z,82.04
2022-10-05T00:34:49.691Z,82.24
2022-10-05T00:56:50.130Z,82.64
2022-10-05T01:18:45.119Z,82.42
2022-10-05T01:40:39.891Z,81.44
2022-10-05T02:02:27.151Z,81.53
2022-10-05T02:24:19.599Z,81.57
2022-10-05T02:46:15.794Z,81.63
2022-10-05T03:08:06.170Z,82.20
2022-10-05T03:29:59.557Z,83.03
2022-10-05T03:51:51.459Z,83.82
2022-10-05T04:13:43.921Z,83.49
2022-10-05T04:35:46.131Z,82.57
2022-10-05T04:57:38.734Z,82.52
2022-10-05T05:19:40.514Z,81.88
2022-10-05T05:41:37.354Z,82.02
2022-10-05T06:03:28.814Z,81.03
2022-10-05T06:25:33.375Z,81.16
2022-10-05T06:47:31.051Z,80.05
2022-10-05T07:09:42.489Z,78.97
2022-10-05T07:31:35.057Z,75.31
2022-10-05T07:53:25.653Z,72.45
2022-10-05T08:15:17.442Z,65.40
2022-10-05T08:37:09.961Z,49.54
2022-10-05T08:59:16.860Z,37.58
2022-10-05T09:21:09.757Z,34.68
2022-10-05T09:43:23.954Z,34.04
2022-10-05T10:05:35.304Z,34.22
2022-10-05T10:27:37.463Z,37.57
2022-10-05T10:49:42.566Z,36.63
2022-10-05T11:11:52.500Z,38.02
2022-10-05T11:34:11.997Z,40.90
2022-10-05T11:56:07.962Z,41.82
2022-10-05T12:18:04.768Z,41.87
2022-10-05T12:39:57.728Z,40.97
2022-10-05T13:01:51.182Z,41.32
2022-10-05T13:23:47.484Z,42.72
2022-10-05T13:45:41.311Z,41.58
2022-10-05T14:07:35.495Z,40.54
2022-10-05T14:29:25.362Z,41.95
2022-10-05T14:51:25.615Z,42.79
2022-10-05T15:13:20.606Z,44.35
2022-10-05T15:35:28.964Z,46.10
2022-10-05T15:57:26.442Z,48.58
2022-10-05T16:19:23.198Z,51.36
2022-10-05T16:41:14.848Z,53.63
2022-10-05T17:03:19.738Z,55.98
2022-10-05T17:25:15.049Z,58.23
2022-10-05T17:47:04.119Z,59.76
2022-10-05T18:08:51.243Z,61.31
2022-10-05T18:30:53.302Z,62.96
2022-10-05T18:52:54.843Z,64.38
2022-10-05T19:14:50.678Z,65.83
2022-10-05T19:36:54.620Z,67.06
2022-10-05T19:58:41.997Z,68.07
2022-10-05T20:20:37.073Z,68.97
2022-10-05T20:42:23.948Z,70.54
2022-10-05T21:04:09.721Z,71.77
2022-10-05T21:25:55.734Z,72.26
2022-10-05T21:47:42.055Z,72.93
2022-10-05T22:09:28.040Z,73.62
2022-10-05T22:31:14.713Z,75.17
2022-10-05T22:53:00.460Z,73.48
2022-10-05T23:14:46.277Z,71.01
2022-10-05T23:36:32.859Z,70.09
2022-10-05T23:58:18.952Z,69.42
